createdAt,value
2022-12-18T00:00:58.379Z,35.1510
2022-12-18T00:02:00.846Z,35.1380
2022-12-18T00:03:01.121Z,35.2020
2022-12-18T00:04:03.551Z,35.1810
2022-12-18T00:05:05.672Z,35.1810
2022-12-18T00:06:07.988Z,35.1470
2022-12-18T00:07:10.393Z,35.1590
2022-12-18T00:08:10.607Z,35.1600
2022-12-18T00:09:12.986Z,35.1770
2022-12-18T00:10:15.577Z,35.1480
2022-12-18T00:11:17.689Z,35.0950
2022-12-18T00:13:20.267Z,35.1170
2022-12-18T00:14:22.642Z,35.1110
2022-12-18T00:15:23.886Z,35.2080
2022-12-18T00:16:25.357Z,35.2960
2022-12-18T00:17:27.593Z,35.2540
2022-12-18T00:18:29.848Z,35.1990
2022-12-18T00:19:30.038Z,35.1470
2022-12-18T00:20:32.325Z,35.1440
2022-12-18T00:21:34.644Z,35.0510
2022-12-18T00:22:36.949Z,35.0680
2022-12-18T00:23:39.729Z,35.0470
2022-12-18T00:24:41.489Z,35.0040
2022-12-18T00:26:57.026Z,35.0560
2022-12-18T00:27:57.261Z,35.0460
2022-12-18T00:28:59.447Z,35.0090
2022-12-18T00:30:01.806Z,35.0090
2022-12-18T00:31:04.127Z,35.0110
2022-12-18T00:32:06.596Z,35.0110
2022-12-18T00:33:06.825Z,34.9960
2022-12-18T00:34:09.036Z,34.9710
2022-12-18T00:35:11.401Z,34.9530
2022-12-18T00:36:13.737Z,34.9410
2022-12-18T00:37:20.081Z,34.9660
2022-12-18T00:38:16.426Z,34.9400
2022-12-18T00:39:18.625Z,34.9360
2022-12-18T00:40:21.020Z,34.9190
2022-12-18T00:41:23.386Z,34.9100
2022-12-18T00:42:23.610Z,34.9320
2022-12-18T00:43:26.106Z,34.9270
2022-12-18T00:44:28.348Z,34.9100
2022-12-18T00:45:30.794Z,34.8820
2022-12-18T00:46:33.085Z,34.8980
2022-12-18T00:47:33.291Z,34.8590
2022-12-18T00:48:35.700Z,34.8460
2022-12-18T00:49:38.047Z,34.8290
2022-12-18T00:50:40.482Z,34.8720
2022-12-18T00:51:40.704Z,34.9040
2022-12-18T00:52:43.116Z,34.8630
2022-12-18T00:53:45.546Z,34.8230
2022-12-18T00:54:47.921Z,34.8630
2022-12-18T00:55:48.114Z,34.7660
2022-12-18T00:56:50.518Z,34.7540
2022-12-18T00:57:52.897Z,34.8060
2022-12-18T00:58:55.324Z,34.7820
2022-12-18T00:59:57.684Z,34.8140
2022-12-18T01:00:57.990Z,34.8060
2022-12-18T01:02:00.489Z,34.7750
2022-12-18T01:03:03.012Z,34.7710
2022-12-18T01:04:03.057Z,34.7280
2022-12-18T01:05:05.447Z,34.7000
2022-12-18T01:06:07.912Z,34.7630
2022-12-18T01:07:08.130Z,34.7070
2022-12-18T01:08:10.512Z,34.7560
2022-12-18T01:09:12.901Z,34.7220
2022-12-18T01:10:15.260Z,34.7050
2022-12-18T01:11:17.647Z,34.6810
2022-12-18T01:12:17.867Z,34.6760
2022-12-18T01:13:20.269Z,34.6700
2022-12-18T01:14:22.691Z,34.6890
2022-12-18T01:15:25.066Z,34.6650
2022-12-18T01:16:25.412Z,34.7120
2022-12-18T01:17:27.729Z,34.6710
2022-12-18T01:18:30.127Z,34.7100
2022-12-18T01:19:30.412Z,34.6600
2022-12-18T01:20:32.802Z,34.6750
2022-12-18T01:21:35.227Z,34.6370
2022-12-18T01:22:37.579Z,34.6090
2022-12-18T01:23:40.529Z,34.6410
2022-12-18T01:24:40.325Z,34.6580
2022-12-18T01:25:42.711Z,34.6370
2022-12-18T01:28:04.785Z,34.6680
2022-12-18T01:29:07.091Z,34.6590
2022-12-18T01:30:07.312Z,34.6110
2022-12-18T01:31:09.617Z,34.5870
2022-12-18T01:32:12.022Z,34.5890
2022-12-18T01:33:14.204Z,34.5310
2022-12-18T01:34:16.526Z,34.5600
2022-12-18T01:35:18.910Z,34.5310
2022-12-18T01:36:19.092Z,34.5630
2022-12-18T01:37:21.454Z,34.5440
2022-12-18T01:38:23.827Z,34.5720
2022-12-18T01:39:26.226Z,34.5200
2022-12-18T01:40:26.508Z,34.5260
2022-12-18T01:41:28.884Z,34.5410
2022-12-18T01:42:31.303Z,34.4670
2022-12-18T01:43:33.703Z,34.5020
2022-12-18T01:44:33.883Z,34.4890
2022-12-18T01:45:36.253Z,34.5190
2022-12-18T01:46:38.547Z,34.4920
2022-12-18T01:47:40.944Z,34.4890
2022-12-18T01:48:43.321Z,34.4930
2022-12-18T01:49:43.557Z,34.4760
2022-12-18T01:50:45.963Z,34.4780
2022-12-18T01:51:48.300Z,34.4440
2022-12-18T01:52:50.616Z,34.4650
2022-12-18T01:53:50.776Z,34.4470
2022-12-18T01:54:53.155Z,34.4650
2022-12-18T01:55:55.709Z,34.4630
2022-12-18T01:56:57.958Z,34.4470
2022-12-18T01:57:58.159Z,34.4030
2022-12-18T01:59:00.521Z,34.3920
2022-12-18T02:00:02.891Z,34.4240
2022-12-18T02:01:05.303Z,34.3840
2022-12-18T02:02:07.797Z,34.3660
2022-12-18T02:03:07.854Z,34.4070
2022-12-18T02:04:10.186Z,34.3770
2022-12-18T02:05:12.500Z,34.3990
2022-12-18T02:06:15.040Z,34.3760
2022-12-18T02:07:17.202Z,34.3880
2022-12-18T02:08:19.557Z,34.3600
2022-12-18T02:09:21.943Z,34.3820
2022-12-18T02:10:24.346Z,34.3720
2022-12-18T02:11:24.609Z,34.4370
2022-12-18T02:12:26.970Z,34.3730
2022-12-18T02:13:29.461Z,34.3410
2022-12-18T02:14:31.722Z,34.3480
2022-12-18T02:15:34.100Z,34.3800
2022-12-18T02:16:35.547Z,34.3610
2022-12-18T02:17:37.631Z,34.5420
2022-12-18T02:18:38.969Z,34.5880
2022-12-18T02:19:41.334Z,34.5050
2022-12-18T02:20:41.549Z,34.4310
2022-12-18T02:21:43.875Z,34.3840
2022-12-18T02:22:46.189Z,34.3570
2022-12-18T02:23:48.567Z,34.3230
2022-12-18T02:24:50.964Z,34.2830
2022-12-18T02:25:51.202Z,34.2970
2022-12-18T02:26:53.625Z,34.2740
2022-12-18T02:27:55.990Z,34.2700
2022-12-18T02:28:58.513Z,34.2630
2022-12-18T02:29:59.181Z,34.2950
2022-12-18T02:31:01.067Z,34.2660
2022-12-18T02:32:03.285Z,34.2740
2022-12-18T02:33:05.614Z,34.2260
2022-12-18T02:34:07.978Z,34.2500
2022-12-18T02:35:08.206Z,34.2340
2022-12-18T02:36:10.588Z,34.2290
2022-12-18T02:37:13.019Z,34.2000
2022-12-18T02:38:15.369Z,34.1630
2022-12-18T02:39:17.749Z,34.2110
2022-12-18T02:40:17.970Z,34.2430
2022-12-18T02:41:20.358Z,34.1320
2022-12-18T02:42:22.777Z,34.1530
2022-12-18T02:43:25.132Z,34.1360
2022-12-18T02:44:25.482Z,34.1390
2022-12-18T02:45:27.844Z,34.1780
2022-12-18T02:46:30.145Z,34.1720
2022-12-18T02:47:32.549Z,34.2370
2022-12-18T02:48:32.773Z,34.2060
2022-12-18T02:49:35.188Z,34.1520
2022-12-18T02:50:37.580Z,34.1330
2022-12-18T02:51:39.990Z,34.1460
2022-12-18T02:52:40.379Z,34.1050
2022-12-18T02:53:42.659Z,34.1150
2022-12-18T02:54:45.012Z,34.1270
2022-12-18T02:55:45.271Z,34.1150
2022-12-18T02:56:47.673Z,34.0700
2022-12-18T02:58:52.762Z,34.1430
2022-12-18T02:59:53.801Z,34.1150
2022-12-18T03:00:55.005Z,34.1330
2022-12-18T03:01:55.297Z,34.1380
2022-12-18T03:02:57.605Z,34.1250
2022-12-18T03:03:59.834Z,34.1270
2022-12-18T03:05:02.163Z,34.0910
2022-12-18T03:06:04.563Z,34.0570
2022-12-18T03:07:04.811Z,34.0740
2022-12-18T03:08:11.037Z,34.1490
2022-12-18T03:09:11.840Z,34.1420
2022-12-18T03:10:14.167Z,34.1070
2022-12-18T03:11:14.408Z,34.0680
2022-12-18T03:12:16.800Z,34.0580
2022-12-18T03:13:19.174Z,34.0410
2022-12-18T03:14:21.551Z,34.0300
2022-12-18T03:15:21.910Z,34.0520
2022-12-18T03:16:24.154Z,34.0240
2022-12-18T03:17:26.457Z,34.0240
2022-12-18T03:18:28.771Z,34.0240
2022-12-18T03:19:31.146Z,34.0240
2022-12-18T03:20:31.336Z,33.9880
2022-12-18T03:21:33.740Z,33.9410
2022-12-18T03:22:36.136Z,33.9830
2022-12-18T03:23:38.744Z,33.9660
2022-12-18T03:24:38.769Z,33.9550
2022-12-18T03:25:41.120Z,34.0130
2022-12-18T03:26:43.493Z,33.9990
2022-12-18T03:27:45.897Z,34.0200
2022-12-18T03:28:46.135Z,33.9820
2022-12-18T03:29:48.557Z,33.9440
2022-12-18T03:30:51.115Z,33.9470
2022-12-18T03:31:53.293Z,33.9370
2022-12-18T03:33:00.091Z,33.9470
2022-12-18T03:33:55.919Z,33.9700
2022-12-18T03:34:58.329Z,33.9450
2022-12-18T03:36:00.722Z,33.9560
2022-12-18T03:37:03.079Z,33.9790
2022-12-18T03:38:03.320Z,33.9520
2022-12-18T03:39:05.723Z,33.9390
2022-12-18T03:40:08.149Z,33.9500
2022-12-18T03:41:10.499Z,33.9470
2022-12-18T03:42:10.750Z,33.9150
2022-12-18T03:43:13.162Z,33.8830
2022-12-18T03:44:15.589Z,33.9150
2022-12-18T03:45:18.011Z,33.8770
2022-12-18T03:46:18.412Z,33.9040
2022-12-18T03:47:20.588Z,33.9100
2022-12-18T03:48:22.921Z,33.9340
2022-12-18T03:49:25.265Z,33.9500
2022-12-18T03:50:25.582Z,33.9450
2022-12-18T03:51:27.822Z,33.9620
2022-12-18T03:52:30.195Z,34.0000
2022-12-18T03:53:32.565Z,34.0060
2022-12-18T03:54:32.779Z,34.0110
2022-12-18T03:55:35.120Z,34.0410
2022-12-18T03:56:37.439Z,33.9940
2022-12-18T03:57:39.760Z,34.0070
2022-12-18T03:58:42.167Z,33.9830
2022-12-18T03:59:44.431Z,33.9840
2022-12-18T04:00:44.669Z,33.9960
2022-12-18T04:01:47.249Z,33.9780
2022-12-18T04:02:49.444Z,33.9780
2022-12-18T04:03:51.707Z,33.9610
2022-12-18T04:04:54.019Z,33.9720
2022-12-18T04:05:54.397Z,33.9610
2022-12-18T04:06:56.652Z,33.9270
2022-12-18T04:07:59.031Z,33.9560
2022-12-18T04:09:01.409Z,33.9620
2022-12-18T04:10:03.804Z,33.9380
2022-12-18T04:11:04.083Z,33.9270
2022-12-18T04:12:06.447Z,33.9040
2022-12-18T04:13:08.855Z,33.8820
2022-12-18T04:14:11.837Z,33.9560
2022-12-18T04:15:11.446Z,33.9770
2022-12-18T04:16:13.859Z,33.9140
2022-12-18T04:17:16.340Z,33.8980
2022-12-18T04:18:18.623Z,33.8840
2022-12-18T04:19:18.889Z,33.9460
2022-12-18T04:20:21.276Z,33.8980
2022-12-18T04:21:23.712Z,33.8630
2022-12-18T04:22:26.066Z,33.8730
2022-12-18T04:23:26.307Z,33.8630
2022-12-18T04:24:28.712Z,33.8630
2022-12-18T04:25:31.112Z,33.7940
2022-12-18T04:26:31.332Z,33.8070
2022-12-18T04:27:33.715Z,33.8180
2022-12-18T04:28:36.117Z,33.7830
2022-12-18T04:29:38.533Z,33.8070
2022-12-18T04:30:38.768Z,33.8010
2022-12-18T04:31:41.155Z,33.8140
2022-12-18T04:32:47.724Z,33.8070
2022-12-18T04:33:45.905Z,33.8100
2022-12-18T04:34:46.175Z,33.7980
2022-12-18T04:35:48.618Z,33.8210
2022-12-18T04:36:51.055Z,33.8470
2022-12-18T04:37:53.375Z,33.9050
2022-12-18T04:38:53.608Z,33.9190
2022-12-18T04:39:56.027Z,33.9190
2022-12-18T04:40:58.450Z,33.9420
2022-12-18T04:42:00.925Z,33.9620
2022-12-18T04:43:01.233Z,33.9560
2022-12-18T04:44:03.606Z,34.0000
2022-12-18T04:45:05.980Z,34.0070
2022-12-18T04:46:08.358Z,34.0420
2022-12-18T04:47:08.516Z,34.0690
2022-12-18T04:48:11.017Z,34.0850
2022-12-18T04:49:13.268Z,34.1210
2022-12-18T04:50:15.669Z,34.1210
2022-12-18T04:51:22.009Z,34.1290
2022-12-18T04:52:18.392Z,34.1530
2022-12-18T04:53:20.730Z,34.1870
2022-12-18T04:54:23.091Z,34.2170
2022-12-18T04:55:25.460Z,34.2110
2022-12-18T04:56:25.682Z,34.2220
2022-12-18T04:57:28.037Z,34.2120
2022-12-18T04:58:30.427Z,34.1870
2022-12-18T04:59:32.807Z,34.1920
2022-12-18T05:00:33.054Z,34.2090
2022-12-18T05:01:35.609Z,34.1950
2022-12-18T05:02:37.983Z,34.2010
2022-12-18T05:03:40.776Z,34.1910
2022-12-18T05:04:40.332Z,34.1660
2022-12-18T05:05:42.657Z,34.2160
2022-12-18T05:06:45.033Z,34.2340
2022-12-18T05:08:43.496Z,34.3100
2022-12-18T05:09:44.601Z,34.2980
2022-12-18T05:10:45.940Z,34.2980
2022-12-18T05:11:46.170Z,34.2830
2022-12-18T05:12:48.574Z,34.2930
2022-12-18T05:13:51.019Z,34.3100
2022-12-18T05:14:51.234Z,34.3090
2022-12-18T05:15:53.675Z,34.3310
2022-12-18T05:17:00.649Z,34.3030
2022-12-18T05:17:58.441Z,34.3620
2022-12-18T05:18:58.856Z,34.3280
2022-12-18T05:20:01.124Z,34.2940
2022-12-18T05:21:03.515Z,34.2660
2022-12-18T05:22:05.894Z,34.2290
2022-12-18T05:23:06.176Z,34.2720
2022-12-18T05:24:08.611Z,34.2940
2022-12-18T05:25:11.005Z,34.2780
2022-12-18T05:26:13.394Z,34.2460
2022-12-18T05:27:13.660Z,34.2400
2022-12-18T05:28:16.085Z,34.2330
2022-12-18T05:29:18.523Z,34.2560
2022-12-18T05:30:18.763Z,34.2750
2022-12-18T05:31:21.212Z,34.2460
2022-12-18T05:32:23.592Z,34.1800
2022-12-18T05:33:25.950Z,34.2180
2022-12-18T05:34:26.460Z,34.2190
2022-12-18T05:35:28.634Z,34.2070
2022-12-18T05:36:31.059Z,34.1860
2022-12-18T05:37:35.863Z,34.2290
2022-12-18T05:38:56.883Z,34.2830
2022-12-18T05:39:57.786Z,34.2670
2022-12-18T05:40:59.975Z,34.2440
2022-12-18T05:42:01.197Z,34.2120
2022-12-18T05:43:02.569Z,34.2570
2022-12-18T05:44:04.940Z,34.2010
2022-12-18T05:45:07.319Z,34.2500
2022-12-18T05:46:09.749Z,34.2070
2022-12-18T05:47:09.879Z,34.2350
2022-12-18T05:48:12.291Z,34.2500
2022-12-18T05:49:14.678Z,34.2400
2022-12-18T05:50:17.216Z,34.1690
2022-12-18T05:51:17.299Z,34.2220
2022-12-18T05:52:19.653Z,34.2230
2022-12-18T05:53:22.007Z,34.2510
2022-12-18T05:54:24.359Z,34.2510
2022-12-18T05:55:26.843Z,34.2330
2022-12-18T05:56:26.940Z,34.2490
2022-12-18T05:57:29.311Z,34.2490
2022-12-18T05:58:31.665Z,34.2610
2022-12-18T05:59:34.030Z,34.2200
2022-12-18T06:00:34.387Z,34.2240
2022-12-18T06:01:36.698Z,34.1750
2022-12-18T06:02:39.099Z,34.1750
2022-12-18T06:03:41.724Z,34.1510
2022-12-18T06:04:41.546Z,34.1280
2022-12-18T06:05:44.052Z,34.1060
2022-12-18T06:06:46.295Z,34.1100
2022-12-18T06:07:48.690Z,34.1100
2022-12-18T06:08:51.068Z,34.0910
2022-12-18T06:09:51.259Z,34.0910
2022-12-18T06:10:53.760Z,34.0580
2022-12-18T06:11:55.981Z,34.0580
2022-12-18T06:12:58.356Z,34.0580
2022-12-18T06:14:00.825Z,34.0580
2022-12-18T06:15:01.026Z,34.0340
2022-12-18T06:16:03.480Z,34.0170
2022-12-18T06:17:05.852Z,34.0000
2022-12-18T06:18:08.276Z,34.0210
2022-12-18T06:19:10.676Z,34.0110
2022-12-18T06:20:13.101Z,34.0020
2022-12-18T06:21:15.634Z,33.9590
2022-12-18T06:22:15.684Z,33.9420
2022-12-18T06:23:18.071Z,33.9360
2022-12-18T06:24:20.491Z,33.9250
2022-12-18T06:25:22.940Z,33.8730
2022-12-18T06:26:27.807Z,33.8670
2022-12-18T06:27:25.641Z,33.8880
2022-12-18T06:28:28.063Z,33.8830
2022-12-18T06:30:43.783Z,33.8510
2022-12-18T06:31:46.208Z,33.8100
2022-12-18T06:32:47.747Z,33.7730
2022-12-18T06:33:48.704Z,33.4920
2022-12-18T06:34:51.066Z,33.6870
2022-12-18T06:35:59.358Z,33.7710
2022-12-18T06:36:53.976Z,33.7130
2022-12-18T06:37:58.321Z,33.2950
2022-12-18T06:38:49.986Z,32.9680
2022-12-18T06:39:50.246Z,33.3970
2022-12-18T06:40:52.602Z,33.5300
2022-12-18T06:41:54.997Z,33.6280
2022-12-18T06:42:57.312Z,33.6430
2022-12-18T06:44:00.267Z,33.6600
2022-12-18T06:44:59.902Z,33.6490
2022-12-18T06:46:02.332Z,33.6970
2022-12-18T06:47:04.676Z,33.6010
2022-12-18T06:48:07.017Z,33.5910
2022-12-18T06:49:09.403Z,33.5730
2022-12-18T06:50:09.681Z,33.5910
2022-12-18T06:51:12.093Z,32.8020
2022-12-18T06:52:14.779Z,33.1040
2022-12-18T06:53:16.934Z,33.2000
2022-12-18T06:54:17.162Z,33.2910
2022-12-18T06:55:19.496Z,33.2870
2022-12-18T06:56:21.865Z,33.3160
2022-12-18T06:57:24.266Z,33.2950
2022-12-18T06:58:24.457Z,33.2970
2022-12-18T06:59:26.823Z,33.2560
2022-12-18T07:00:29.184Z,33.2670
2022-12-18T07:01:31.589Z,33.2600
2022-12-18T07:02:34.057Z,33.2670
2022-12-18T07:03:34.080Z,33.3520
2022-12-18T07:04:36.450Z,33.2810
2022-12-18T07:05:38.809Z,33.2980
2022-12-18T07:06:41.208Z,33.3740
2022-12-18T07:07:43.679Z,33.3290
2022-12-18T07:08:43.729Z,33.4210
2022-12-18T07:09:46.079Z,33.3790
2022-12-18T07:10:51.685Z,33.3370
2022-12-18T07:11:50.832Z,33.3890
2022-12-18T07:12:53.383Z,33.4630
2022-12-18T07:13:53.419Z,33.5010
2022-12-18T07:14:55.822Z,33.4240
2022-12-18T07:15:58.239Z,33.4560
2022-12-18T07:16:58.495Z,33.4830
2022-12-18T07:18:00.908Z,33.4130
2022-12-18T07:19:03.211Z,33.3280
2022-12-18T07:20:05.572Z,33.4040
2022-12-18T07:21:05.820Z,33.4580
2022-12-18T07:22:08.216Z,33.5540
2022-12-18T07:23:10.713Z,33.5530
2022-12-18T07:24:12.870Z,33.5290
2022-12-18T07:25:13.062Z,33.4880
2022-12-18T07:26:15.440Z,33.1880
2022-12-18T07:27:17.839Z,33.2130
2022-12-18T07:28:20.266Z,33.3310
2022-12-18T07:29:22.619Z,33.4400
2022-12-18T07:30:22.865Z,33.4230
2022-12-18T07:31:25.381Z,33.4710
2022-12-18T07:32:27.578Z,33.3540
2022-12-18T07:33:29.905Z,33.4020
2022-12-18T07:34:30.079Z,33.5160
2022-12-18T07:35:32.446Z,33.5790
2022-12-18T07:36:34.832Z,33.4520
2022-12-18T07:37:37.240Z,33.3200
2022-12-18T07:38:39.746Z,33.3440
2022-12-18T07:39:39.839Z,33.3230
2022-12-18T07:40:42.194Z,33.3250
2022-12-18T07:41:46.950Z,33.3560
2022-12-18T07:42:46.897Z,33.4160
2022-12-18T07:43:49.308Z,33.4840
2022-12-18T07:44:49.497Z,33.5120
2022-12-18T07:45:51.958Z,33.5210
2022-12-18T07:46:54.272Z,33.4740
2022-12-18T07:47:56.662Z,33.4860
2022-12-18T07:48:56.950Z,33.4990
2022-12-18T07:49:59.278Z,33.5220
2022-12-18T07:51:01.603Z,33.5220
2022-12-18T07:52:04.015Z,33.5510
2022-12-18T07:53:06.362Z,33.5310
2022-12-18T07:54:06.673Z,33.4990
2022-12-18T07:55:08.871Z,33.5840
2022-12-18T07:56:27.061Z,33.6470
2022-12-18T07:57:27.331Z,33.7280
2022-12-18T07:58:13.909Z,33.7930
2022-12-18T07:59:16.326Z,33.8750
2022-12-18T08:00:18.665Z,33.9760
2022-12-18T08:01:21.336Z,34.0140
2022-12-18T08:02:21.491Z,34.1010
2022-12-18T08:03:23.795Z,34.1910
2022-12-18T08:04:26.366Z,34.1880
2022-12-18T08:05:26.498Z,34.1920
2022-12-18T08:06:28.883Z,34.1990
2022-12-18T08:07:31.251Z,34.0980
2022-12-18T08:08:33.656Z,33.9440
2022-12-18T08:09:34.133Z,33.8730
2022-12-18T08:10:36.272Z,33.8380
2022-12-18T08:11:38.668Z,33.8300
2022-12-18T08:12:41.057Z,33.7950
2022-12-18T08:13:41.694Z,33.8740
2022-12-18T08:14:43.643Z,33.8500
2022-12-18T08:15:45.977Z,33.8670
2022-12-18T08:16:48.419Z,33.8050
2022-12-18T08:17:50.756Z,33.8300
2022-12-18T08:18:51.009Z,33.7660
2022-12-18T08:19:53.441Z,33.9800
2022-12-18T08:20:55.794Z,33.9000
2022-12-18T08:21:58.149Z,33.8910
2022-12-18T08:22:58.423Z,33.8510
2022-12-18T08:24:00.825Z,33.8470
2022-12-18T08:25:03.382Z,33.7860
2022-12-18T08:26:05.583Z,33.8440
2022-12-18T08:27:28.337Z,33.8980
2022-12-18T08:28:08.204Z,33.9500
2022-12-18T08:29:10.621Z,33.9490
2022-12-18T08:30:12.980Z,33.9770
2022-12-18T08:31:13.252Z,33.9340
2022-12-18T08:31:17.622Z,33.9340
2022-12-18T08:32:18.790Z,33.9950
2022-12-18T08:33:20.112Z,33.9610
2022-12-18T08:34:22.438Z,34.0630
2022-12-18T08:35:24.806Z,34.0750
2022-12-18T08:36:27.114Z,34.0640
2022-12-18T08:37:29.398Z,34.0830
2022-12-18T08:38:31.793Z,34.0620
2022-12-18T08:39:32.006Z,34.0380
2022-12-18T08:40:34.568Z,34.0220
2022-12-18T08:41:36.736Z,34.0680
2022-12-18T08:42:39.115Z,34.0560
2022-12-18T08:43:39.835Z,33.9830
2022-12-18T08:44:41.727Z,33.9440
2022-12-18T08:45:44.253Z,33.9770
2022-12-18T08:46:46.575Z,34.0190
2022-12-18T08:47:46.832Z,33.9430
2022-12-18T08:48:49.257Z,33.9940
2022-12-18T08:49:51.667Z,34.0130
2022-12-18T08:50:54.096Z,33.9910
2022-12-18T08:51:54.309Z,33.9780
2022-12-18T08:52:56.710Z,33.9940
2022-12-18T08:53:59.106Z,33.9600
2022-12-18T08:55:01.537Z,33.9670
2022-12-18T08:56:01.920Z,34.0190
2022-12-18T08:57:04.162Z,33.9830
2022-12-18T08:58:06.607Z,33.9920
2022-12-18T08:59:10.463Z,33.9140
2022-12-18T09:00:09.177Z,33.9140
2022-12-18T09:01:11.645Z,33.8810
2022-12-18T09:03:42.541Z,33.9350
2022-12-18T09:04:45.632Z,33.8750
2022-12-18T09:05:44.320Z,33.7950
2022-12-18T09:06:46.725Z,33.7590
2022-12-18T09:07:48.895Z,33.7900
2022-12-18T09:08:51.178Z,33.8340
2022-12-18T09:09:53.482Z,33.8890
2022-12-18T09:10:55.773Z,33.8730
2022-12-18T09:11:56.092Z,33.8710
2022-12-18T09:12:58.216Z,33.9350
2022-12-18T09:14:00.510Z,33.9290
2022-12-18T09:15:02.805Z,33.8750
2022-12-18T09:16:05.102Z,33.9090
2022-12-18T09:17:07.455Z,33.9720
2022-12-18T09:18:07.557Z,33.9660
2022-12-18T09:19:09.842Z,33.9270
2022-12-18T09:20:12.167Z,33.9050
2022-12-18T09:21:14.455Z,34.0140
2022-12-18T09:22:16.897Z,33.9720
2022-12-18T09:23:19.115Z,33.5130
2022-12-18T09:24:21.473Z,33.9930
2022-12-18T09:25:21.659Z,34.0200
2022-12-18T09:26:24.014Z,33.9140
2022-12-18T09:27:26.574Z,33.9030
2022-12-18T09:28:28.618Z,34.0240
2022-12-18T09:29:30.959Z,33.9660
2022-12-18T09:30:31.272Z,34.0300
2022-12-18T09:31:33.524Z,34.1350
2022-12-18T09:32:35.904Z,34.1520
2022-12-18T09:33:38.207Z,34.0850
2022-12-18T09:34:40.569Z,34.0760
2022-12-18T09:35:40.755Z,34.1670
2022-12-18T09:36:43.115Z,34.3280
2022-12-18T09:37:45.500Z,34.3640
2022-12-18T09:38:47.796Z,34.4140
2022-12-18T09:39:50.142Z,34.3880
2022-12-18T09:40:52.470Z,34.4130
2022-12-18T09:41:54.878Z,34.3740
2022-12-18T09:42:57.414Z,34.4130
2022-12-18T09:43:59.488Z,34.1000
2022-12-18T09:44:59.804Z,34.3120
2022-12-18T09:46:02.096Z,34.9330
2022-12-18T09:47:04.471Z,35.1060
2022-12-18T09:48:06.932Z,35.0240
2022-12-18T09:49:07.174Z,35.1150
2022-12-18T09:50:14.264Z,35.2300
2022-12-18T09:51:12.030Z,35.3770
2022-12-18T09:52:14.451Z,35.3230
2022-12-18T09:53:14.750Z,35.1920
2022-12-18T09:54:17.153Z,35.2380
2022-12-18T09:55:19.490Z,35.3300
2022-12-18T09:56:21.820Z,35.1850
2022-12-18T09:57:22.065Z,35.1290
2022-12-18T09:58:24.560Z,35.0220
2022-12-18T09:59:26.799Z,34.9270
2022-12-18T10:00:29.182Z,34.9020
2022-12-18T10:01:41.587Z,34.9460
2022-12-18T10:02:31.997Z,34.9250
2022-12-18T10:03:34.252Z,34.8870
2022-12-18T10:04:36.761Z,34.9530
2022-12-18T10:05:39.004Z,34.9820
2022-12-18T10:06:39.282Z,34.9720
2022-12-18T10:07:41.652Z,35.0700
2022-12-18T10:08:44.303Z,35.0470
2022-12-18T10:09:46.411Z,35.0240
2022-12-18T10:10:46.665Z,35.1600
2022-12-18T10:11:49.025Z,35.2360
2022-12-18T10:12:51.373Z,35.3640
2022-12-18T10:13:53.983Z,35.2270
2022-12-18T10:14:56.145Z,35.1600
2022-12-18T10:15:56.431Z,35.1780
2022-12-18T10:16:58.818Z,35.1220
2022-12-18T10:17:59.340Z,35.0370
2022-12-18T10:19:01.509Z,35.0780
2022-12-18T10:20:03.833Z,35.0900
2022-12-18T10:21:06.177Z,35.0310
2022-12-18T10:22:06.419Z,34.9770
2022-12-18T10:23:08.827Z,34.9510
2022-12-18T10:24:11.252Z,34.9810
2022-12-18T10:25:13.602Z,35.0150
2022-12-18T10:26:13.837Z,35.0040
2022-12-18T10:27:16.236Z,35.0350
2022-12-18T10:28:18.628Z,34.9640
2022-12-18T10:29:21.177Z,34.9700
2022-12-18T10:30:23.405Z,34.9640
2022-12-18T10:31:24.823Z,34.9880
2022-12-18T10:32:26.068Z,34.9880
2022-12-18T10:33:28.479Z,34.9190
2022-12-18T10:34:30.914Z,34.9130
2022-12-18T10:35:31.133Z,34.9300
2022-12-18T10:36:33.527Z,34.9250
2022-12-18T10:37:35.938Z,35.0270
2022-12-18T10:38:38.693Z,35.0100
2022-12-18T10:39:38.623Z,35.0950
2022-12-18T10:40:40.989Z,35.1100
2022-12-18T10:41:43.417Z,35.0560
2022-12-18T10:42:43.682Z,35.0930
2022-12-18T10:43:46.101Z,35.1490
2022-12-18T10:44:48.765Z,35.1670
2022-12-18T10:45:50.929Z,35.2240
2022-12-18T10:46:51.242Z,35.2070
2022-12-18T10:47:53.592Z,35.2070
2022-12-18T10:48:55.958Z,35.2180
2022-12-18T10:49:58.384Z,35.2870
2022-12-18T10:51:14.121Z,35.2160
2022-12-18T10:52:00.922Z,35.3430
2022-12-18T10:53:03.288Z,35.3040
2022-12-18T10:54:06.397Z,35.2070
2022-12-18T10:55:08.039Z,35.1630
2022-12-18T10:56:08.225Z,35.0820
2022-12-18T10:57:10.625Z,35.0290
2022-12-18T10:58:12.960Z,35.0350
2022-12-18T10:59:15.291Z,35.1710
2022-12-18T11:00:15.698Z,35.1850
2022-12-18T11:01:18.154Z,35.2990
2022-12-18T11:02:20.770Z,35.4020
2022-12-18T11:03:22.808Z,35.5960
2022-12-18T11:04:23.024Z,35.6860
2022-12-18T11:05:25.451Z,35.7600
2022-12-18T11:06:27.839Z,35.8550
2022-12-18T11:07:30.251Z,35.9310
2022-12-18T11:08:30.519Z,35.9880
2022-12-18T11:09:32.911Z,36.0950
2022-12-18T11:10:35.367Z,36.0950
2022-12-18T11:11:37.743Z,36.0440
2022-12-18T11:12:38.001Z,36.1030
2022-12-18T11:13:40.376Z,36.0390
2022-12-18T11:14:46.849Z,36.1610
2022-12-18T11:15:45.394Z,35.8450
2022-12-18T11:17:03.166Z,36.0900
2022-12-18T11:17:47.817Z,35.9950
2022-12-18T11:18:50.216Z,35.7290
2022-12-18T11:19:52.647Z,36.0060
2022-12-18T11:20:56.972Z,35.5250
2022-12-18T11:21:55.185Z,35.5640
2022-12-18T11:22:57.585Z,35.6870
2022-12-18T11:23:59.972Z,35.3050
2022-12-18T11:26:02.653Z,35.1610
2022-12-18T11:27:05.035Z,35.2790
2022-12-18T11:28:07.432Z,35.7220
2022-12-18T11:29:07.717Z,35.7250
2022-12-18T11:30:10.144Z,35.7890
2022-12-18T11:31:12.908Z,35.8700
2022-12-18T11:32:14.971Z,35.8230
2022-12-18T11:33:15.209Z,35.7320
2022-12-18T11:34:29.173Z,35.8310
2022-12-18T11:35:19.964Z,35.8690
2022-12-18T11:36:22.327Z,35.9820
2022-12-18T11:37:24.593Z,35.9670
2022-12-18T11:38:26.911Z,35.9460
2022-12-18T11:39:27.115Z,35.8980
2022-12-18T11:40:29.435Z,35.8870
2022-12-18T11:41:31.940Z,35.9560
2022-12-18T11:42:34.137Z,35.9170
2022-12-18T11:43:36.511Z,35.4400
2022-12-18T11:44:36.678Z,35.0060
2022-12-18T11:45:39.042Z,34.9710
2022-12-18T11:46:41.622Z,35.4450
2022-12-18T11:47:43.755Z,35.6180
2022-12-18T11:48:46.116Z,35.7150
2022-12-18T11:49:46.320Z,35.7400
2022-12-18T11:50:48.663Z,35.6650
2022-12-18T11:51:51.040Z,35.6250
2022-12-18T11:52:58.205Z,35.6670
2022-12-18T11:53:55.644Z,35.7430
2022-12-18T11:54:57.979Z,35.7350
2022-12-18T11:55:58.121Z,35.6890
2022-12-18T11:57:00.445Z,35.6250
2022-12-18T11:58:02.771Z,35.3170
2022-12-18T11:59:05.082Z,35.2700
2022-12-18T12:00:07.397Z,35.4260
2022-12-18T12:01:07.572Z,35.6670
2022-12-18T12:02:10.236Z,35.6680
2022-12-18T12:03:12.330Z,35.6360
2022-12-18T12:04:14.583Z,35.7980
2022-12-18T12:05:16.872Z,35.8270
2022-12-18T12:06:19.188Z,35.6990
2022-12-18T12:07:19.392Z,35.7740
2022-12-18T12:08:21.700Z,36.1400
2022-12-18T12:09:24.033Z,35.8560
2022-12-18T12:10:26.324Z,35.6850
2022-12-18T12:11:28.645Z,35.8140
2022-12-18T12:12:28.961Z,35.5960
2022-12-18T12:13:31.149Z,35.1550
2022-12-18T12:14:33.500Z,35.5030
2022-12-18T12:16:07.708Z,36.2500
2022-12-18T12:17:08.337Z,36.1790
2022-12-18T12:18:11.597Z,36.2130
2022-12-18T12:19:12.911Z,36.1630
2022-12-18T12:20:15.192Z,36.1460
2022-12-18T12:21:17.499Z,36.1460
2022-12-18T12:22:19.748Z,35.8770
2022-12-18T12:23:22.493Z,35.7080
2022-12-18T12:24:22.300Z,35.7220
2022-12-18T12:25:24.599Z,35.8540
2022-12-18T12:26:26.960Z,35.8930
2022-12-18T12:27:29.314Z,35.7350
2022-12-18T12:28:29.566Z,35.6220
2022-12-18T12:29:31.891Z,35.6440
2022-12-18T12:30:34.184Z,35.7520
2022-12-18T12:31:36.590Z,35.8450
2022-12-18T12:32:38.822Z,35.6480
2022-12-18T12:33:41.758Z,35.6110
2022-12-18T12:34:41.251Z,35.5080
2022-12-18T12:35:43.590Z,35.5740
2022-12-18T12:36:45.906Z,35.6220
2022-12-18T12:37:48.218Z,35.6060